createdAt,value
2023-07-25T00:02:26.779Z,94842.53
2023-07-25T00:05:29.880Z,94831.34
2023-07-25T00:08:33.650Z,94843.81
2023-07-25T00:11:38.260Z,94837.66
2023-07-25T00:14:41.354Z,94845.59
2023-07-25T00:17:44.497Z,94838.78
2023-07-25T00:20:47.589Z,94829.34
2023-07-25T00:23:50.630Z,94826.00
2023-07-25T00:26:55.054Z,94825.66
2023-07-25T00:29:58.180Z,94813.22
2023-07-25T00:33:01.279Z,94821.06
2023-07-25T00:36:04.541Z,94814.03
2023-07-25T00:39:07.588Z,94814.72
2023-07-25T00:42:12.075Z,94807.78
2023-07-25T00:45:15.151Z,94806.31
2023-07-25T00:48:18.504Z,94807.63
2023-07-25T00:51:22.150Z,94803.44
2023-07-25T00:54:25.303Z,94801.78
2023-07-25T00:57:31.907Z,94801.69
2023-07-25T01:00:35.021Z,94801.09
2023-07-25T01:03:40.185Z,94801.34
2023-07-25T01:06:44.013Z,94798.25
2023-07-25T01:09:48.138Z,94788.19
2023-07-25T01:12:52.684Z,94796.34
2023-07-25T01:15:56.516Z,94801.44
2023-07-25T01:19:01.375Z,94795.56
2023-07-25T01:22:04.657Z,94791.84
2023-07-25T01:25:10.017Z,94801.31
2023-07-25T01:28:13.011Z,94803.09
2023-07-25T01:31:16.140Z,94801.31
2023-07-25T01:34:19.245Z,94802.88
2023-07-25T01:37:22.266Z,94798.47
2023-07-25T01:40:26.771Z,94786.84
2023-07-25T01:43:29.835Z,94782.31
2023-07-25T01:46:32.951Z,94779.53
2023-07-25T01:49:36.050Z,94784.16
2023-07-25T01:52:39.048Z,94789.75
2023-07-25T01:55:43.478Z,94798.66
2023-07-25T01:58:46.553Z,94800.66
2023-07-25T02:01:49.752Z,94801.09
2023-07-25T02:04:52.893Z,94801.53
2023-07-25T02:07:56.071Z,94807.34
2023-07-25T02:11:00.626Z,94808.91
2023-07-25T02:14:03.766Z,94809.03
2023-07-25T02:17:07.708Z,94815.97
2023-07-25T02:20:11.431Z,94814.78
2023-07-25T02:23:14.499Z,94826.22
2023-07-25T02:26:18.915Z,94823.53
2023-07-25T02:29:22.074Z,94831.25
2023-07-25T02:32:25.294Z,94835.88
2023-07-25T02:35:28.449Z,94842.81
2023-07-25T02:38:31.522Z,94843.06
2023-07-25T02:41:35.931Z,94852.88
2023-07-25T02:44:38.938Z,94844.84
2023-07-25T02:47:41.997Z,94837.81
2023-07-25T02:50:45.089Z,94837.03
2023-07-25T02:53:48.196Z,94842.94
2023-07-25T02:56:52.666Z,94831.31
2023-07-25T02:59:55.790Z,94826.31
2023-07-25T03:02:58.918Z,94833.16
2023-07-25T03:06:02.091Z,94827.22
2023-07-25T03:09:05.499Z,94834.03
2023-07-25T03:12:10.628Z,94831.78
2023-07-25T03:15:13.661Z,94830.03
2023-07-25T03:18:16.717Z,94820.50
2023-07-25T03:21:19.851Z,94826.31
2023-07-25T03:24:22.966Z,94826.66
2023-07-25T03:27:27.887Z,94823.28
2023-07-25T03:30:30.974Z,94821.28
2023-07-25T03:33:34.119Z,94824.94
2023-07-25T03:36:38.534Z,94832.63
2023-07-25T03:39:41.593Z,94825.91
2023-07-25T03:42:46.142Z,94814.91
2023-07-25T03:45:49.513Z,94820.94
2023-07-25T03:48:52.594Z,94828.91
2023-07-25T03:51:55.649Z,94826.84
2023-07-25T03:54:58.743Z,94825.81
2023-07-25T03:58:03.229Z,94839.69
2023-07-25T04:01:06.330Z,94829.28
2023-07-25T04:04:09.523Z,94824.66
2023-07-25T04:07:12.634Z,94823.88
2023-07-25T04:10:15.768Z,94827.56
2023-07-25T04:13:20.257Z,94835.16
2023-07-25T04:16:23.553Z,94828.56
2023-07-25T04:19:26.608Z,94842.13
2023-07-25T04:22:30.026Z,94838.75
2023-07-25T04:25:33.105Z,94842.53
2023-07-25T04:28:37.611Z,94844.09
2023-07-25T04:31:40.722Z,94846.31
2023-07-25T04:34:43.796Z,94846.31
2023-07-25T04:37:46.797Z,94843.28
2023-07-25T04:40:49.816Z,94838.78
2023-07-25T04:43:54.389Z,94830.47
2023-07-25T04:46:57.494Z,94818.88
2023-07-25T04:50:00.620Z,94816.34
2023-07-25T04:53:03.665Z,94824.94
2023-07-25T04:56:07.108Z,94815.34
2023-07-25T04:59:11.508Z,94816.00
2023-07-25T05:02:14.614Z,94813.78
2023-07-25T05:05:17.792Z,94807.63
2023-07-25T05:08:20.752Z,94803.28
2023-07-25T05:11:23.895Z,94808.09
2023-07-25T05:14:28.338Z,94806.38
2023-07-25T05:17:31.467Z,94802.34
2023-07-25T05:20:34.529Z,94807.47
2023-07-25T05:23:37.566Z,94806.66
2023-07-25T05:26:40.651Z,94800.06
2023-07-25T05:29:45.248Z,94805.63
2023-07-25T05:32:50.412Z,94814.03
2023-07-25T05:36:01.755Z,94816.13
2023-07-25T05:39:05.087Z,94807.53
2023-07-25T05:42:08.744Z,94813.78
2023-07-25T05:45:13.372Z,94815.03
2023-07-25T05:48:16.459Z,94812.63
2023-07-25T05:51:19.515Z,94812.06
2023-07-25T05:54:22.934Z,94811.56
2023-07-25T05:57:26.074Z,94803.41
2023-07-25T06:00:30.599Z,94802.50
2023-07-25T06:03:33.838Z,94799.50
2023-07-25T06:06:37.044Z,94798.16
2023-07-25T06:09:40.122Z,94809.66
2023-07-25T06:12:43.697Z,94798.84
2023-07-25T06:15:48.372Z,94792.22
2023-07-25T06:18:51.490Z,94789.50
2023-07-25T06:21:54.549Z,94785.13
2023-07-25T06:24:57.805Z,94789.38
2023-07-25T06:28:01.020Z,94777.00
2023-07-25T06:31:05.641Z,94769.56
2023-07-25T06:34:08.861Z,94764.34
2023-07-25T06:37:12.093Z,94764.63
2023-07-25T06:40:15.146Z,94750.16
2023-07-25T06:43:18.157Z,94748.72
2023-07-25T06:46:26.131Z,94744.50
2023-07-25T06:49:29.306Z,94733.75
2023-07-25T06:52:32.416Z,94740.56
2023-07-25T06:55:35.875Z,94738.47
2023-07-25T06:58:39.027Z,94738.13
2023-07-25T07:01:43.493Z,94739.16
2023-07-25T07:04:47.069Z,94736.13
2023-07-25T07:07:50.557Z,94743.25
2023-07-25T07:10:54.887Z,94744.81
2023-07-25T07:13:58.009Z,94746.09
2023-07-25T07:17:02.516Z,94744.13
2023-07-25T07:20:06.294Z,94741.50
2023-07-25T07:23:09.374Z,94736.56
2023-07-25T07:26:12.426Z,94732.50
2023-07-25T07:29:15.600Z,94724.53
2023-07-25T07:32:20.137Z,94725.22
2023-07-25T07:35:23.233Z,94726.41
2023-07-25T07:38:26.275Z,94731.16
2023-07-25T07:41:29.733Z,94734.28
2023-07-25T07:44:33.067Z,94730.03
2023-07-25T07:47:37.586Z,94723.97
2023-07-25T07:50:40.783Z,94723.97
2023-07-25T07:53:43.803Z,94713.59
2023-07-25T07:56:46.976Z,94715.56
2023-07-25T07:59:50.053Z,94718.31
2023-07-25T08:02:54.588Z,94699.06
2023-07-25T08:05:58.651Z,94696.63
2023-07-25T08:09:01.699Z,94689.69
2023-07-25T08:12:05.419Z,94690.59
2023-07-25T08:15:09.183Z,94689.53
2023-07-25T08:18:13.761Z,94690.59
2023-07-25T08:21:16.819Z,94685.38
2023-07-25T08:24:19.828Z,94686.44
2023-07-25T08:27:22.979Z,94691.25
2023-07-25T08:30:26.067Z,94677.25
2023-07-25T08:33:32.984Z,94681.88
2023-07-25T08:36:36.227Z,94669.84
2023-07-25T08:39:39.324Z,94665.97
2023-07-25T08:42:44.420Z,94672.78
2023-07-25T08:45:50.445Z,94662.22
2023-07-25T08:49:01.732Z,94655.78
2023-07-25T08:52:06.756Z,94656.19
2023-07-25T08:55:10.561Z,94655.47
2023-07-25T08:58:15.729Z,94656.94
2023-07-25T09:01:19.540Z,94654.84
2023-07-25T09:04:25.354Z,94643.72
2023-07-25T09:07:28.665Z,94645.38
2023-07-25T09:10:32.366Z,94651.56
2023-07-25T09:13:36.036Z,94634.66
2023-07-25T09:16:39.247Z,94633.72
2023-07-25T09:19:43.830Z,94634.72
2023-07-25T09:22:49.092Z,94629.00
2023-07-25T09:26:04.839Z,94624.72
2023-07-25T09:29:08.105Z,94619.28
2023-07-25T09:32:20.388Z,94615.63
2023-07-25T09:35:26.051Z,94618.59
2023-07-25T09:38:29.170Z,94622.44
2023-07-25T09:41:32.793Z,94615.84
2023-07-25T09:44:36.156Z,94616.56
2023-07-25T09:47:40.926Z,94614.25
2023-07-25T09:50:46.473Z,94613.03
2023-07-25T09:53:53.644Z,94604.84
2023-07-25T09:56:56.768Z,94601.28
2023-07-25T10:00:01.132Z,94599.56
2023-07-25T10:03:04.512Z,94601.66
2023-07-25T10:06:10.027Z,94593.28
2023-07-25T10:09:15.185Z,94587.75
2023-07-25T10:12:18.308Z,94578.91
2023-07-25T10:15:21.829Z,94570.44
2023-07-25T10:18:28.561Z,94570.66
2023-07-25T10:21:48.659Z,94570.09
2023-07-25T10:24:51.884Z,94560.97
2023-07-25T10:27:57.177Z,94548.22
2023-07-25T10:31:00.356Z,94542.84
2023-07-25T10:34:05.461Z,94541.84
2023-07-25T10:37:24.146Z,94543.75
2023-07-25T10:40:27.283Z,94536.00
2023-07-25T10:43:32.327Z,94525.19
2023-07-25T10:46:36.543Z,94522.25
2023-07-25T10:49:58.269Z,94506.59
2023-07-25T10:53:16.110Z,94502.22
2023-07-25T10:56:20.348Z,94502.56
2023-07-25T10:59:23.572Z,94502.13
2023-07-25T11:02:33.700Z,94486.34
2023-07-25T11:05:36.887Z,94480.91
2023-07-25T11:08:43.028Z,94468.59
2023-07-25T11:11:47.482Z,94454.31
2023-07-25T11:14:52.190Z,94462.78
2023-07-25T11:17:55.495Z,94465.91
2023-07-25T11:21:02.746Z,94452.84
2023-07-25T11:24:08.494Z,94452.53
2023-07-25T11:27:11.767Z,94447.97
2023-07-25T11:30:17.215Z,94444.03
2023-07-25T11:33:20.934Z,94438.28
2023-07-25T11:36:24.089Z,94434.03
2023-07-25T11:39:28.776Z,94422.50
2023-07-25T11:42:31.891Z,94419.50
2023-07-25T11:45:35.277Z,94418.72
2023-07-25T11:48:38.465Z,94414.16
2023-07-25T11:51:42.675Z,94420.47
2023-07-25T11:54:47.598Z,94409.63
2023-07-25T11:57:52.437Z,94404.53
2023-07-25T12:00:55.924Z,94404.91
2023-07-25T12:04:01.706Z,94402.19
2023-07-25T12:07:05.248Z,94390.69
2023-07-25T12:10:10.144Z,94390.28
2023-07-25T12:13:13.590Z,94389.91
2023-07-25T12:16:30.771Z,94371.03
2023-07-25T12:19:34.316Z,94368.34
2023-07-25T12:22:38.922Z,94366.09
2023-07-25T12:25:43.888Z,94371.09
2023-07-25T12:28:47.398Z,94360.34
2023-07-25T12:31:50.770Z,94361.47
2023-07-25T12:35:01.081Z,94353.34
2023-07-25T12:38:04.237Z,94355.66
2023-07-25T12:41:09.703Z,94338.63
2023-07-25T12:44:12.994Z,94342.41
2023-07-25T12:47:16.038Z,94333.06
2023-07-25T12:50:19.898Z,94332.06
2023-07-25T12:53:22.930Z,94318.91
2023-07-25T12:56:27.414Z,94312.34
2023-07-25T12:59:30.542Z,94324.69
2023-07-25T13:02:33.770Z,94311.25
2023-07-25T13:05:37.126Z,94302.78
2023-07-25T13:08:40.355Z,94280.88
2023-07-25T13:11:45.768Z,94297.44
2023-07-25T13:14:48.831Z,94295.16
2023-07-25T13:17:51.988Z,94293.59
2023-07-25T13:20:56.138Z,94278.94
2023-07-25T13:23:59.334Z,94296.28
2023-07-25T13:27:03.889Z,94284.47
2023-07-25T13:30:08.197Z,94284.88
2023-07-25T13:33:11.589Z,94276.81
2023-07-25T13:36:14.912Z,94279.09
2023-07-25T13:39:18.810Z,94272.09
2023-07-25T13:42:24.649Z,94265.25
2023-07-25T13:45:38.014Z,94267.94
2023-07-25T13:48:49.202Z,94266.06
2023-07-25T13:51:52.324Z,94272.19
2023-07-25T13:54:55.442Z,94268.41
2023-07-25T13:58:09.941Z,94273.91
2023-07-25T14:01:13.551Z,94275.00
2023-07-25T14:04:16.742Z,94257.63
2023-07-25T14:07:20.499Z,94256.00
2023-07-25T14:10:23.638Z,94253.66
2023-07-25T14:13:28.338Z,94244.94
2023-07-25T14:16:31.413Z,94251.06
2023-07-25T14:19:34.846Z,94246.81
2023-07-25T14:22:37.938Z,94236.34
2023-07-25T14:25:41.679Z,94242.06
2023-07-25T14:28:46.722Z,94239.81
2023-07-25T14:31:49.866Z,94239.66
2023-07-25T14:34:53.215Z,94242.00
2023-07-25T14:37:58.162Z,94229.22
2023-07-25T14:41:02.257Z,94229.47
2023-07-25T14:44:06.946Z,94233.94
2023-07-25T14:47:10.060Z,94229.59
2023-07-25T14:50:13.254Z,94236.13
2023-07-25T14:53:16.373Z,94230.16
2023-07-25T14:56:19.527Z,94224.00
2023-07-25T14:59:24.530Z,94236.59
2023-07-25T15:02:27.743Z,94229.22
2023-07-25T15:05:31.075Z,94231.47
2023-07-25T15:08:34.186Z,94220.13
2023-07-25T15:11:39.632Z,94222.38
2023-07-25T15:14:44.247Z,94221.59
2023-07-25T15:17:47.307Z,94219.69
2023-07-25T15:20:53.534Z,94217.66
2023-07-25T15:23:56.640Z,94228.25
2023-07-25T15:26:59.746Z,94219.81
2023-07-25T15:30:04.304Z,94225.91
2023-07-25T15:33:07.619Z,94221.00
2023-07-25T15:36:11.237Z,94228.00
2023-07-25T15:39:14.446Z,94221.72
2023-07-25T15:42:17.798Z,94225.59
2023-07-25T15:45:22.303Z,94228.94
2023-07-25T15:48:25.377Z,94229.41
2023-07-25T15:51:28.711Z,94230.25
2023-07-25T15:54:32.067Z,94236.00
2023-07-25T15:57:35.152Z,94229.06
2023-07-25T16:00:39.903Z,94236.88
2023-07-25T16:03:48.025Z,94230.41
2023-07-25T16:06:51.658Z,94230.19
2023-07-25T16:09:54.711Z,94232.09
2023-07-25T16:13:00.279Z,94232.81
2023-07-25T16:16:07.832Z,94238.09
2023-07-25T16:19:11.501Z,94227.22
2023-07-25T16:22:14.745Z,94223.16
2023-07-25T16:25:17.956Z,94226.75
2023-07-25T16:28:20.993Z,94221.84
2023-07-25T16:31:32.761Z,94219.69
2023-07-25T16:34:36.716Z,94219.72
2023-07-25T16:37:39.846Z,94224.03
2023-07-25T16:40:43.076Z,94231.03
2023-07-25T16:43:46.108Z,94232.22
2023-07-25T16:46:50.669Z,94223.78
2023-07-25T16:49:53.788Z,94236.91
2023-07-25T16:52:56.913Z,94237.31
2023-07-25T16:56:00.104Z,94232.34
2023-07-25T16:59:03.317Z,94231.66
2023-07-25T17:02:08.482Z,94236.69
2023-07-25T17:05:14.669Z,94230.94
2023-07-25T17:08:17.991Z,94235.59
2023-07-25T17:11:21.077Z,94232.53
2023-07-25T17:14:24.148Z,94239.88
2023-07-25T17:17:29.093Z,94236.41
2023-07-25T17:20:32.262Z,94239.16
2023-07-25T17:23:35.437Z,94248.75
2023-07-25T17:26:38.842Z,94233.41
2023-07-25T17:29:41.924Z,94241.13
2023-07-25T17:32:46.617Z,94238.09
2023-07-25T17:35:49.717Z,94236.59
2023-07-25T17:38:52.926Z,94229.28
2023-07-25T17:41:56.026Z,94227.38
2023-07-25T17:44:59.077Z,94219.72
2023-07-25T17:48:03.553Z,94226.66
2023-07-25T17:51:06.702Z,94217.44
2023-07-25T17:54:09.840Z,94219.00
2023-07-25T17:57:12.928Z,94219.75
2023-07-25T18:00:16.297Z,94209.78
2023-07-25T18:03:21.750Z,94204.41
2023-07-25T18:06:24.906Z,94201.34
2023-07-25T18:09:28.165Z,94209.09
2023-07-25T18:12:31.312Z,94202.94
2023-07-25T18:15:34.688Z,94201.00
2023-07-25T18:18:39.159Z,94209.84
2023-07-25T18:21:42.190Z,94207.94
2023-07-25T18:24:45.343Z,94204.47
2023-07-25T18:27:48.451Z,94200.31
2023-07-25T18:30:55.831Z,94203.78
2023-07-25T18:34:00.407Z,94199.16
2023-07-25T18:37:03.715Z,94206.09
2023-07-25T18:40:08.073Z,94195.34
2023-07-25T18:43:18.350Z,94195.75
2023-07-25T18:46:21.457Z,94187.69
2023-07-25T18:49:26.014Z,94184.22
2023-07-25T18:52:29.326Z,94175.78
2023-07-25T18:55:32.396Z,94186.16
2023-07-25T18:58:35.517Z,94193.88
2023-07-25T19:01:38.609Z,94193.88
2023-07-25T19:04:44.502Z,94188.50
2023-07-25T19:07:47.672Z,94188.50
2023-07-25T19:10:50.790Z,94180.06
2023-07-25T19:13:53.899Z,94171.22
2023-07-25T19:16:58.265Z,94164.69
2023-07-25T19:20:05.062Z,94160.88
2023-07-25T19:23:23.693Z,94165.47
2023-07-25T19:26:28.813Z,94175.50
2023-07-25T19:29:31.924Z,94178.19
2023-07-25T19:32:34.986Z,94168.19
2023-07-25T19:35:40.280Z,94177.81
2023-07-25T19:38:43.703Z,94170.19
2023-07-25T19:41:46.764Z,94167.50
2023-07-25T19:44:49.920Z,94164.03
2023-07-25T19:47:53.029Z,94168.25
2023-07-25T19:50:57.544Z,94160.97
2023-07-25T19:54:04.509Z,94164.81
2023-07-25T19:57:08.057Z,94166.75
2023-07-25T20:00:11.990Z,94158.69
2023-07-25T20:03:15.195Z,94154.84
2023-07-25T20:06:20.017Z,94146.41
2023-07-25T20:09:23.243Z,94142.94
2023-07-25T20:12:26.270Z,94141.03
2023-07-25T20:15:29.497Z,94148.31
2023-07-25T20:18:32.861Z,94146.81
2023-07-25T20:21:37.322Z,94154.88
2023-07-25T20:24:40.539Z,94159.91
2023-07-25T20:27:43.617Z,94147.22
2023-07-25T20:30:46.694Z,94150.03
2023-07-25T20:33:49.795Z,94156.19
2023-07-25T20:36:54.285Z,94155.50
2023-07-25T20:39:57.335Z,94155.88
2023-07-25T20:43:00.442Z,94157.03
2023-07-25T20:46:04.705Z,94155.88
2023-07-25T20:49:07.972Z,94155.50
2023-07-25T20:52:12.467Z,94145.53
2023-07-25T20:55:15.590Z,94146.34
2023-07-25T20:58:18.663Z,94141.72
2023-07-25T21:01:21.776Z,94141.31
2023-07-25T21:04:28.913Z,94134.44
2023-07-25T21:07:36.372Z,94139.03
2023-07-25T21:10:41.681Z,94127.13
2023-07-25T21:13:47.128Z,94129.84
2023-07-25T21:16:50.209Z,94112.94
2023-07-25T21:19:53.262Z,94119.09
2023-07-25T21:22:57.702Z,94118.31
2023-07-25T21:26:00.715Z,94103.72
2023-07-25T21:29:03.884Z,94098.69
2023-07-25T21:32:07.626Z,94099.06
2023-07-25T21:35:10.693Z,94104.44
2023-07-25T21:38:15.155Z,94100.63
2023-07-25T21:41:18.236Z,94103.72
2023-07-25T21:44:21.263Z,94101.03
2023-07-25T21:47:24.458Z,94100.25
2023-07-25T21:50:27.546Z,94099.91
2023-07-25T21:53:32.786Z,94101.03
2023-07-25T21:56:35.867Z,94096.78
2023-07-25T21:59:38.984Z,94094.84
2023-07-25T22:02:42.781Z,94105.22
2023-07-25T22:05:45.909Z,94100.22
2023-07-25T22:08:50.599Z,94083.28
2023-07-25T22:11:55.758Z,94101.38
2023-07-25T22:14:58.880Z,94109.44
2023-07-25T22:18:01.963Z,94105.97
2023-07-25T22:21:05.161Z,94093.63
2023-07-25T22:24:09.684Z,94092.09
2023-07-25T22:27:12.786Z,94089.75
2023-07-25T22:30:16.288Z,94085.53
2023-07-25T22:33:19.478Z,94089.38
2023-07-25T22:36:22.543Z,94089.00
2023-07-25T22:39:26.982Z,94084.75
2023-07-25T22:42:30.010Z,94082.84
2023-07-25T22:45:33.097Z,94081.69
2023-07-25T22:48:36.219Z,94080.91
2023-07-25T22:51:39.290Z,94069.00
2023-07-25T22:54:43.838Z,94069.00
2023-07-25T22:57:47.219Z,94074.38
2023-07-25T23:00:50.481Z,94072.09
2023-07-25T23:03:53.579Z,94064.78
2023-07-25T23:06:56.669Z,94066.72
2023-07-25T23:10:01.277Z,94057.53
2023-07-25T23:13:04.439Z,94052.91
2023-07-25T23:16:08.020Z,94064.47
2023-07-25T23:19:11.138Z,94058.69
2023-07-25T23:22:14.246Z,94053.31
2023-07-25T23:25:18.871Z,94054.03
2023-07-25T23:28:21.951Z,94045.19
2023-07-25T23:31:25.054Z,94054.03
2023-07-25T23:34:30.059Z,94044.84
2023-07-25T23:37:33.133Z,94044.84
2023-07-25T23:40:37.800Z,94032.16
2023-07-25T23:43:40.886Z,94036.78
2023-07-25T23:46:43.945Z,94027.91
2023-07-25T23:49:47.123Z,94025.56
2023-07-25T23:52:50.198Z,94032.88
2023-07-25T23:55:54.670Z,94041.72
2023-07-25T23:58:57.714Z,94016.72
